Time;durP1;ratioP1;P1;durP2;ratioP2;P2;SDS_P1;SDS_P2;PMS_P1;PMS_P2;Temp;Humidity;BMP_temperature;BMP_pressure;BME280_temperature;BME280_humidity;BME280_pressure;Samples;Min_cycle;Max_cycle;Signal;HPM_P1;HPM_P2
2021/05/24 00:00:27;;;;;;;2.72;1.67;;;12.20;72.70;;;;;;5084023;28;27400;-60
2021/05/24 00:03:18;;;;;;;4.00;1.75;;;12.20;72.90;;;;;;5081328;28;27441;-60
2021/05/24 00:06:14;;;;;;;6.47;3.50;;;12.10;72.60;;;;;;5084579;28;27478;-61
2021/05/24 00:09:05;;;;;;;1.90;1.60;;;12.10;72.50;;;;;;5084780;28;27824;-60
2021/05/24 00:11:56;;;;;;;5.28;2.30;;;12.10;72.70;;;;;;5084436;28;27359;-60
2021/05/24 00:14:47;;;;;;;3.47;1.45;;;12.00;72.40;;;;;;5084562;28;27438;-60
2021/05/24 00:17:40;;;;;;;2.17;1.60;;;12.00;72.40;;;;;;5081085;28;27493;-60
2021/05/24 00:20:32;;;;;;;2.28;1.45;;;12.00;72.50;;;;;;5068807;28;27539;-61
2021/05/24 00:23:24;;;;;;;2.13;1.20;;;11.90;72.70;;;;;;5083641;28;27412;-60
2021/05/24 00:26:08;;;;;;;3.67;1.25;;;11.90;72.30;;;;;;5084363;28;27420;-62
2021/05/24 00:28:59;;;;;;;1.38;1.23;;;11.90;72.80;;;;;;5080989;28;27474;-60
2021/05/24 00:31:49;;;;;;;4.18;0.95;;;11.90;72.50;;;;;;5084443;28;27936;-60
2021/05/24 00:34:40;;;;;;;4.05;1.30;;;11.80;72.70;;;;;;5083440;28;27466;-60
2021/05/24 00:37:31;;;;;;;1.48;1.30;;;11.80;72.80;;;;;;5080023;28;27394;-60
2021/05/24 00:40:28;;;;;;;1.83;1.13;;;11.80;72.40;;;;;;5083968;28;26962;-60
2021/05/24 00:43:18;;;;;;;4.88;2.13;;;11.70;72.50;;;;;;5084304;28;27394;-60
2021/05/24 00:46:09;;;;;;;1.88;1.20;;;11.70;72.40;;;;;;5083507;28;27550;-60
2021/05/24 00:48:59;;;;;;;2.33;1.27;;;11.70;72.80;;;;;;5083151;28;27449;-60
2021/05/24 00:51:52;;;;;;;2.30;1.27;;;11.60;73.00;;;;;;5080825;28;27467;-60
2021/05/24 00:55:05;;;;;;;2.40;1.00;;;11.60;72.80;;;;;;5084017;28;27820;-60
2021/05/24 00:58:00;;;;;;;3.30;1.60;;;11.60;73.10;;;;;;5083256;28;27427;-61
2021/05/24 01:00:52;;;;;;;2.20;1.92;;;11.60;72.90;;;;;;5084062;28;27343;-61
2021/05/24 01:03:42;;;;;;;4.00;1.98;;;11.60;73.00;;;;;;5082781;28;27394;-61
2021/05/24 01:06:33;;;;;;;3.63;1.60;;;11.60;73.30;;;;;;5083501;28;27891;-61
2021/05/24 01:09:24;;;;;;;2.38;1.40;;;11.50;73.30;;;;;;5079798;28;27435;-61
2021/05/24 01:12:20;;;;;;;2.55;1.70;;;11.50;73.30;;;;;;5083400;28;27388;-61
2021/05/24 01:15:25;;;;;;;4.32;2.00;;;11.50;73.10;;;;;;5083665;28;27448;-61
2021/05/24 01:18:16;;;;;;;3.45;1.58;;;11.50;73.30;;;;;;5083423;28;27558;-61
2021/05/24 01:21:17;;;;;;;2.72;1.60;;;11.50;73.40;;;;;;5083424;28;27503;-61
2021/05/24 01:24:30;;;;;;;3.05;1.20;;;11.40;73.50;;;;;;5082240;28;27323;-62
2021/05/24 01:27:25;;;;;;;1.65;1.27;;;11.40;73.30;;;;;;5081452;28;27501;-62
2021/05/24 01:30:36;;;;;;;2.10;1.58;;;11.40;73.50;;;;;;5083551;28;27498;-63
2021/05/24 01:33:28;;;;;;;2.22;1.23;;;11.30;73.40;;;;;;5083551;28;27654;-61
2021/05/24 01:36:18;;;;;;;3.28;1.27;;;11.30;73.70;;;;;;5083210;28;27401;-62
2021/05/24 01:39:19;;;;;;;2.13;1.35;;;11.30;73.50;;;;;;5083108;28;27469;-61
2021/05/24 01:42:16;;;;;;;1.40;1.30;;;11.30;73.80;;;;;;5080076;28;27457;-61
2021/05/24 01:45:12;;;;;;;1.58;1.25;;;11.30;73.60;;;;;;5083104;28;27367;-62
2021/05/24 01:48:03;;;;;;;9.77;1.20;;;11.30;74.00;;;;;;5083324;28;27510;-61
2021/05/24 01:50:59;;;;;;;5.13;1.60;;;11.20;73.70;;;;;;5083144;28;27407;-61
2021/05/24 01:53:49;;;;;;;2.60;1.17;;;11.20;73.80;;;;;;5083224;28;27918;-61
2021/05/24 01:56:41;;;;;;;3.75;1.50;;;11.20;74.00;;;;;;5082853;28;27438;-61
2021/05/24 01:59:31;;;;;;;4.35;1.20;;;11.20;74.20;;;;;;5082956;28;27391;-61
2021/05/24 02:02:17;;;;;;;2.58;1.33;;;11.20;74.10;;;;;;5083203;28;27422;-61
2021/05/24 02:05:13;;;;;;;4.28;1.60;;;11.20;73.90;;;;;;5081969;28;28008;-61
2021/05/24 02:08:04;;;;;;;4.45;1.58;;;11.20;74.50;;;;;;5080179;28;27378;-61
2021/05/24 02:10:54;;;;;;;5.32;1.92;;;11.10;75.30;;;;;;5083090;28;27404;-61
2021/05/24 02:13:47;;;;;;;9.45;1.80;;;11.10;74.90;;;;;;5078923;28;27391;-61
2021/05/24 02:16:58;;;;;;;4.05;1.70;;;11.10;74.40;;;;;;5082216;28;27926;-61
2021/05/24 02:19:49;;;;;;;4.05;1.50;;;11.10;74.10;;;;;;5082934;28;27466;-61
2021/05/24 02:22:39;;;;;;;4.07;1.75;;;11.00;74.30;;;;;;5086225;28;27360;-62
2021/05/24 02:25:31;;;;;;;4.70;1.40;;;11.00;74.30;;;;;;5085274;28;27485;-61
2021/05/24 02:28:27;;;;;;;3.88;1.42;;;11.00;74.50;;;;;;5086055;28;27337;-61
2021/05/24 02:31:19;;;;;;;3.15;1.65;;;11.00;74.70;;;;;;5086286;28;27474;-61
2021/05/24 02:34:10;;;;;;;2.03;1.30;;;11.00;74.50;;;;;;5082529;28;27659;-62
2021/05/24 02:37:01;;;;;;;4.03;1.30;;;10.90;74.80;;;;;;5086042;28;27477;-60
2021/05/24 02:39:52;;;;;;;1.48;1.27;;;10.90;74.60;;;;;;5081927;28;27462;-61
2021/05/24 02:42:42;;;;;;;2.13;1.30;;;10.90;74.60;;;;;;5086104;28;27388;-61
2021/05/24 02:45:33;;;;;;;3.47;1.50;;;10.90;75.00;;;;;;5086131;28;27474;-61
2021/05/24 02:48:23;;;;;;;1.60;1.38;;;10.90;75.10;;;;;;5086046;28;26864;-61
2021/05/24 02:51:14;;;;;;;2.30;1.38;;;10.90;75.20;;;;;;5086015;28;27844;-62
2021/05/24 02:54:05;;;;;;;1.80;1.30;;;10.80;75.30;;;;;;5070868;28;27329;-61
2021/05/24 02:56:55;;;;;;;2.25;1.70;;;10.80;75.50;;;;;;5082752;28;27478;-61
2021/05/24 02:59:46;;;;;;;1.75;1.38;;;10.80;75.00;;;;;;5085665;28;27316;-61
2021/05/24 03:02:47;;;;;;;1.70;1.50;;;10.80;75.10;;;;;;5082351;28;27643;-61
2021/05/24 03:05:38;;;;;;;4.75;1.70;;;10.80;75.60;;;;;;5067175;28;27482;-61
2021/05/24 03:08:28;;;;;;;3.47;1.38;;;10.80;75.40;;;;;;5085806;28;27369;-62
2021/05/24 03:11:19;;;;;;;3.60;1.50;;;10.80;75.30;;;;;;5085435;28;27468;-60
2021/05/24 03:14:10;;;;;;;4.35;1.55;;;10.80;75.70;;;;;;5084720;28;27379;-61
2021/05/24 03:17:03;;;;;;;3.10;2.05;;;10.70;75.60;;;;;;5085535;28;27473;-61
2021/05/24 03:20:28;;;;;;;2.78;1.50;;;10.70;75.80;;;;;;5073339;28;27537;-61
2021/05/24 03:23:19;;;;;;;3.30;1.52;;;10.70;75.70;;;;;;5085329;28;27423;-61
2021/05/24 03:26:10;;;;;;;2.22;1.75;;;10.70;75.80;;;;;;5083299;28;27946;-61
2021/05/24 03:29:01;;;;;;;3.58;2.03;;;10.70;75.50;;;;;;5084834;28;27655;-62
2021/05/24 03:31:52;;;;;;;2.20;1.70;;;10.70;76.20;;;;;;5081078;28;27535;-61
2021/05/24 03:34:44;;;;;;;2.97;1.73;;;10.70;76.00;;;;;;5085043;28;27360;-61
2021/05/24 03:37:55;;;;;;;1.80;1.38;;;10.70;77.00;;;;;;5072826;28;27515;-62
2021/05/24 03:40:46;;;;;;;2.17;1.55;;;10.60;76.70;;;;;;5081862;28;27396;-61
2021/05/24 03:43:48;;;;;;;1.75;1.50;;;10.60;76.90;;;;;;5085239;28;27450;-61
2021/05/24 03:46:38;;;;;;;2.10;1.90;;;10.60;76.70;;;;;;5085045;28;26941;-61
2021/05/24 03:49:31;;;;;;;4.47;1.88;;;10.60;77.40;;;;;;5085086;28;27949;-61
2021/05/24 03:52:38;;;;;;;2.35;1.80;;;10.60;76.70;;;;;;5072383;28;27517;-61
2021/05/24 03:55:30;;;;;;;2.80;1.70;;;10.60;76.40;;;;;;5085103;28;27401;-61
2021/05/24 03:58:40;;;;;;;2.38;1.60;;;10.60;76.60;;;;;;5083569;28;27411;-61
2021/05/24 04:01:34;;;;;;;1.58;1.20;;;10.60;76.40;;;;;;5084638;28;27389;-61
2021/05/24 04:04:25;;;;;;;3.03;1.58;;;10.60;76.10;;;;;;5069532;28;27470;-61
2021/05/24 04:07:20;;;;;;;3.03;1.58;;;10.60;76.30;;;;;;5084606;28;27416;-61
2021/05/24 04:10:17;;;;;;;4.18;2.05;;;10.60;76.90;;;;;;5081500;28;27400;-61
2021/05/24 04:13:08;;;;;;;3.58;1.42;;;10.60;77.60;;;;;;5084652;28;27821;-62
2021/05/24 04:16:00;;;;;;;2.40;1.70;;;10.60;76.90;;;;;;5084467;28;27539;-61
2021/05/24 04:18:51;;;;;;;2.38;1.90;;;10.60;77.30;;;;;;5084383;28;27329;-61
2021/05/24 04:21:42;;;;;;;1.55;1.45;;;10.60;77.60;;;;;;5080586;28;27419;-61
2021/05/24 04:24:32;;;;;;;2.38;1.70;;;10.60;77.40;;;;;;5083759;28;27493;-61
2021/05/24 04:27:23;;;;;;;1.65;1.40;;;10.60;77.30;;;;;;5080919;28;27447;-61
2021/05/24 04:30:33;;;;;;;2.60;1.58;;;10.60;77.90;;;;;;5084504;28;27450;-62
2021/05/24 04:33:47;;;;;;;4.03;2.03;;;10.60;78.00;;;;;;5084466;28;27371;-62
2021/05/24 04:36:37;;;;;;;3.80;1.67;;;10.60;78.30;;;;;;5080818;28;27417;-61
2021/05/24 04:39:28;;;;;;;2.42;1.92;;;10.60;78.00;;;;;;5080128;28;27492;-61
2021/05/24 04:42:41;;;;;;;2.08;1.65;;;10.60;78.40;;;;;;5084348;28;27390;-63
2021/05/24 04:45:34;;;;;;;4.05;1.80;;;10.60;78.30;;;;;;5082734;28;27311;-61
2021/05/24 04:48:27;;;;;;;4.28;2.10;;;10.70;79.10;;;;;;5068649;28;27479;-61
2021/05/24 04:51:20;;;;;;;2.83;1.50;;;10.70;79.10;;;;;;5068654;28;27630;-61
2021/05/24 04:54:17;;;;;;;2.90;1.73;;;10.70;79.20;;;;;;5084161;28;27336;-62
2021/05/24 04:57:08;;;;;;;4.22;1.83;;;10.70;78.80;;;;;;5083768;28;27501;-61
2021/05/24 04:59:59;;;;;;;1.77;1.60;;;10.70;79.00;;;;;;5080496;28;27394;-61
2021/05/24 05:02:49;;;;;;;2.70;1.73;;;10.80;79.10;;;;;;5083709;28;27407;-61
2021/05/24 05:05:41;;;;;;;6.53;1.60;;;10.80;79.40;;;;;;5083750;28;27337;-61
2021/05/24 05:08:32;;;;;;;2.20;1.98;;;10.80;79.20;;;;;;5083883;28;27399;-61
2021/05/24 05:11:17;;;;;;;3.25;1.85;;;10.90;79.20;;;;;;5083615;28;27605;-61
2021/05/24 05:14:09;;;;;;;2.80;1.83;;;10.90;78.90;;;;;;5082788;28;27501;-61
2021/05/24 05:17:00;;;;;;;1.98;1.42;;;10.90;79.30;;;;;;5079425;28;27333;-62
2021/05/24 05:19:51;;;;;;;4.55;1.95;;;11.00;78.80;;;;;;5082970;28;27409;-62
2021/05/24 05:22:41;;;;;;;1.63;1.52;;;11.00;79.80;;;;;;5082514;28;27319;-62
2021/05/24 05:25:33;;;;;;;3.00;1.58;;;11.00;79.50;;;;;;5082728;28;27465;-61
2021/05/24 05:28:24;;;;;;;2.58;2.00;;;11.00;79.70;;;;;;5083244;28;27442;-62
2021/05/24 05:31:16;;;;;;;3.17;1.88;;;11.10;80.00;;;;;;5083336;28;27396;-61
2021/05/24 05:34:06;;;;;;;5.53;2.10;;;11.10;79.70;;;;;;5083402;28;27452;-62
2021/05/24 05:36:56;;;;;;;3.92;2.10;;;11.10;79.80;;;;;;5083146;28;27392;-61
2021/05/24 05:39:50;;;;;;;2.35;2.15;;;11.20;80.40;;;;;;5083415;28;27477;-62
2021/05/24 05:42:40;;;;;;;4.15;2.50;;;11.20;79.60;;;;;;5083322;28;27421;-62
2021/05/24 05:45:32;;;;;;;3.35;2.20;;;11.20;80.00;;;;;;5083038;28;27380;-62
2021/05/24 05:48:25;;;;;;;5.38;2.25;;;11.20;80.10;;;;;;5067138;28;27449;-62
2021/05/24 05:51:15;;;;;;;4.05;1.83;;;11.20;80.40;;;;;;5082303;28;27505;-62
2021/05/24 05:54:06;;;;;;;2.50;1.90;;;11.30;80.40;;;;;;5083255;28;27358;-62
2021/05/24 05:56:56;;;;;;;3.80;2.13;;;11.30;79.70;;;;;;5082893;28;27916;-62
2021/05/24 05:59:47;;;;;;;3.88;2.42;;;11.40;76.90;;;;;;5078774;28;27447;-62
2021/05/24 06:02:44;;;;;;;9.48;2.80;;;11.40;77.20;;;;;;5079865;28;27417;-62
2021/05/24 06:05:36;;;;;;;4.57;2.70;;;11.50;77.60;;;;;;5083038;28;27390;-62
2021/05/24 06:08:26;;;;;;;7.00;2.38;;;11.50;77.60;;;;;;5082719;28;27854;-62
2021/05/24 06:11:19;;;;;;;3.42;2.80;;;11.60;78.00;;;;;;5082841;28;27418;-62
2021/05/24 06:14:11;;;;;;;5.05;3.47;;;11.60;78.40;;;;;;5067148;28;27399;-62
2021/05/24 06:17:08;;;;;;;6.55;3.17;;;11.70;77.60;;;;;;5078859;28;27432;-62
2021/05/24 06:20:03;;;;;;;4.05;2.70;;;11.80;78.80;;;;;;5082544;28;27385;-62
2021/05/24 06:22:54;;;;;;;3.10;2.50;;;11.80;79.70;;;;;;5082777;28;27349;-62
2021/05/24 06:26:06;;;;;;;3.85;2.67;;;11.90;80.00;;;;;;5082138;28;27560;-62
2021/05/24 06:28:57;;;;;;;8.98;3.17;;;12.00;78.80;;;;;;5082825;28;27330;-62
2021/05/24 06:31:51;;;;;;;8.15;3.30;;;12.10;78.80;;;;;;5082679;28;27420;-62
2021/05/24 06:35:19;;;;;;;8.30;3.35;;;12.10;79.00;;;;;;5081663;28;27485;-62
2021/05/24 06:38:50;;;;;;;5.93;3.00;;;12.20;79.00;;;;;;5082525;28;27411;-62
2021/05/24 06:42:22;;;;;;;7.35;3.55;;;12.30;79.40;;;;;;5082159;28;27375;-62
2021/05/24 06:45:54;;;;;;;6.72;3.10;;;12.40;79.70;;;;;;5082238;28;27459;-62
2021/05/24 06:49:25;;;;;;;8.00;3.42;;;12.50;79.90;;;;;;5082256;28;27499;-62
2021/05/24 06:52:41;;;;;;;6.05;4.43;;;12.50;79.00;;;;;;5082336;28;27368;-62
2021/05/24 06:55:38;;;;;;;9.23;5.13;;;12.50;78.90;;;;;;5082474;28;27451;-62
2021/05/24 06:58:24;;;;;;;7.50;5.30;;;12.60;79.40;;;;;;5081596;28;27345;-62
2021/05/24 07:01:09;;;;;;;5.63;4.13;;;12.60;81.60;;;;;;5082153;28;27402;-63
2021/05/24 07:03:59;;;;;;;13.40;3.97;;;12.70;80.80;;;;;;5085910;28;27410;-62
2021/05/24 07:06:51;;;;;;;3.50;3.20;;;12.80;78.60;;;;;;5081385;28;27505;-61
2021/05/24 07:10:00;;;;;;;5.18;3.90;;;12.90;80.70;;;;;;5069235;28;27515;-64
2021/05/24 07:12:51;;;;;;;4.97;3.40;;;12.90;81.80;;;;;;5085473;28;27595;-62
2021/05/24 07:15:43;;;;;;;5.75;3.92;;;13.00;81.80;;;;;;5085456;28;27388;-62
2021/05/24 07:18:34;;;;;;;5.30;4.07;;;13.10;81.60;;;;;;5085402;28;27430;-63
2021/05/24 07:21:24;;;;;;;5.38;3.90;;;13.20;82.60;;;;;;5085618;28;27442;-62
2021/05/24 07:24:16;;;;;;;6.28;3.45;;;13.30;83.10;;;;;;5084883;28;27401;-63
2021/05/24 07:27:06;;;;;;;4.15;3.55;;;13.40;83.40;;;;;;5085065;28;27486;-62
2021/05/24 07:29:57;;;;;;;5.95;4.45;;;13.50;82.80;;;;;;5085156;28;27308;-62
2021/05/24 07:32:48;;;;;;;5.72;3.72;;;13.60;84.20;;;;;;5085354;28;27908;-62
2021/05/24 07:35:39;;;;;;;5.32;3.88;;;13.70;82.90;;;;;;5084990;28;27438;-63
2021/05/24 07:38:32;;;;;;;5.35;4.10;;;13.80;84.00;;;;;;5083015;28;27325;-62
2021/05/24 07:41:23;;;;;;;10.13;4.22;;;13.90;84.10;;;;;;5070891;28;27412;-62
2021/05/24 07:44:13;;;;;;;5.72;3.85;;;14.00;83.50;;;;;;5086241;28;27849;-62
2021/05/24 07:47:07;;;;;;;5.15;3.97;;;14.10;84.40;;;;;;5082502;28;27351;-62
2021/05/24 07:49:57;;;;;;;3.28;2.97;;;14.20;84.70;;;;;;5086242;28;27416;-63
2021/05/24 07:52:52;;;;;;;3.80;3.10;;;14.40;84.90;;;;;;5085914;28;27422;-62
2021/05/24 07:55:49;;;;;;;6.85;3.25;;;14.60;83.30;;;;;;5086159;28;27410;-62
2021/05/24 07:58:46;;;;;;;6.18;3.33;;;14.70;81.60;;;;;;5070899;28;27428;-62
2021/05/24 08:01:40;;;;;;;4.85;2.63;;;14.80;80.90;;;;;;5071161;28;27431;-63
2021/05/24 08:04:30;;;;;;;5.13;3.00;;;14.80;80.80;;;;;;5085309;28;27424;-62
2021/05/24 08:07:22;;;;;;;4.65;2.97;;;14.90;81.40;;;;;;5085536;28;27311;-63
2021/05/24 08:10:17;;;;;;;4.30;2.78;;;15.00;80.00;;;;;;5085788;28;27459;-62
2021/05/24 08:13:08;;;;;;;4.28;2.45;;;15.00;80.40;;;;;;5085290;28;27327;-63
2021/05/24 08:15:58;;;;;;;2.63;2.00;;;15.00;81.70;;;;;;5085722;28;27407;-63
2021/05/24 08:18:48;;;;;;;5.85;2.70;;;15.00;80.00;;;;;;5082406;28;27305;-62
2021/05/24 08:21:39;;;;;;;3.53;2.45;;;15.10;82.30;;;;;;5081377;28;27472;-62
2021/05/24 08:24:32;;;;;;;2.40;1.95;;;15.10;83.60;;;;;;5084796;28;27690;-63
2021/05/24 08:27:27;;;;;;;2.00;1.70;;;15.30;84.80;;;;;;5070189;28;27490;-63
2021/05/24 08:30:32;;;;;;;4.63;2.20;;;15.40;83.60;;;;;;5085536;28;27937;-63
2021/05/24 08:33:23;;;;;;;3.45;1.75;;;15.60;84.10;;;;;;5081949;28;27422;-64
2021/05/24 08:36:13;;;;;;;3.67;2.50;;;15.70;84.60;;;;;;5085246;28;27494;-63
2021/05/24 08:39:04;;;;;;;2.67;2.10;;;15.90;84.50;;;;;;5084354;28;27426;-62
2021/05/24 08:41:55;;;;;;;3.50;1.90;;;16.00;84.20;;;;;;5081351;28;27422;-62
2021/05/24 08:44:48;;;;;;;2.72;1.90;;;16.20;84.70;;;;;;5084299;28;27454;-63
2021/05/24 08:47:39;;;;;;;2.42;1.80;;;16.40;83.90;;;;;;5084727;28;27336;-62
2021/05/24 08:50:30;;;;;;;2.55;1.92;;;16.70;83.10;;;;;;5080996;28;27475;-62
2021/05/24 08:53:21;;;;;;;2.38;1.67;;;16.90;83.30;;;;;;5084944;28;27355;-62
2021/05/24 08:56:11;;;;;;;4.13;1.60;;;17.20;81.30;;;;;;5085140;28;27391;-63
2021/05/24 08:59:06;;;;;;;3.83;1.65;;;17.50;79.80;;;;;;5084689;28;27316;-63
2021/05/24 09:02:38;;;;;;;2.17;1.35;;;17.70;79.80;;;;;;5084679;28;27385;-63
2021/05/24 09:05:35;;;;;;;1.83;1.38;;;17.90;79.10;;;;;;5082897;28;27404;-62
2021/05/24 09:08:34;;;;;;;4.53;1.63;;;18.00;79.10;;;;;;5081454;28;27448;-63
2021/05/24 09:11:31;;;;;;;5.72;1.58;;;18.10;80.20;;;;;;5085088;28;27453;-62
2021/05/24 09:14:19;;;;;;;2.70;1.20;;;18.20;82.20;;;;;;5084941;28;27411;-63
2021/05/24 09:17:09;;;;;;;3.15;1.63;;;18.20;79.60;;;;;;5084830;28;27328;-62
2021/05/24 09:20:02;;;;;;;2.95;1.05;;;18.20;79.70;;;;;;5084503;28;27469;-62
2021/05/24 09:23:35;;;;;;;2.75;1.42;;;18.30;79.70;;;;;;5080459;28;27336;-62
2021/05/24 09:26:26;;;;;;;2.08;0.85;;;18.30;80.30;;;;;;5081038;28;27371;-63
2021/05/24 09:29:22;;;;;;;1.90;1.02;;;18.40;81.70;;;;;;5083452;28;27416;-63
2021/05/24 09:32:18;;;;;;;1.85;0.90;;;18.40;78.10;;;;;;5084573;28;27402;-62
2021/05/24 09:35:16;;;;;;;2.00;1.13;;;18.40;79.00;;;;;;5081066;28;27403;-62
2021/05/24 09:38:10;;;;;;;1.20;1.08;;;18.40;79.40;;;;;;5083191;28;27395;-63
2021/05/24 09:41:06;;;;;;;1.42;1.00;;;18.30;80.00;;;;;;5081203;28;27470;-63
2021/05/24 09:43:57;;;;;;;1.90;0.98;;;18.30;79.50;;;;;;5084121;28;27472;-63
2021/05/24 09:46:48;;;;;;;2.30;1.08;;;18.40;81.10;;;;;;5084047;28;27407;-63
2021/05/24 09:49:38;;;;;;;1.15;0.93;;;18.40;80.40;;;;;;5083400;28;27426;-63
2021/05/24 09:52:35;;;;;;;2.38;1.35;;;18.50;81.90;;;;;;5084356;28;27833;-65
2021/05/24 09:55:27;;;;;;;1.88;1.13;;;18.50;69.80;;;;;;5083660;28;27496;-65
2021/05/24 09:58:17;;;;;;;2.55;1.00;;;18.60;71.90;;;;;;5084119;28;27332;-65
2021/05/24 10:01:29;;;;;;;4.95;1.30;;;18.60;73.50;;;;;;5083481;28;27452;-66
2021/05/24 10:04:45;;;;;;;1.63;1.27;;;18.60;74.40;;;;;;5083228;28;27459;-65
2021/05/24 10:07:42;;;;;;;7.43;1.08;;;18.60;75.50;;;;;;5083882;28;27474;-65
2021/05/24 10:10:39;;;;;;;1.75;1.00;;;18.70;77.80;;;;;;5068257;28;27427;-65
2021/05/24 10:13:29;;;;;;;4.55;1.20;;;18.70;77.30;;;;;;5084096;28;27478;-65
2021/05/24 10:16:42;;;;;;;2.35;1.02;;;18.70;77.80;;;;;;5083792;28;27921;-65
2021/05/24 10:19:33;;;;;;;3.65;1.40;;;18.70;78.60;;;;;;5083750;28;27363;-65
2021/05/24 10:22:25;;;;;;;4.35;1.15;;;18.80;77.20;;;;;;5083730;28;27469;-65
2021/05/24 10:25:22;;;;;;;2.50;1.33;;;18.80;79.30;;;;;;5082915;28;27550;-65
2021/05/24 10:28:15;;;;;;;2.10;1.15;;;18.90;79.90;;;;;;5080274;28;27903;-65
2021/05/24 10:31:32;;;;;;;4.30;1.30;;;18.90;79.00;;;;;;5083876;28;27357;-65
2021/05/24 10:34:36;;;;;;;1.90;1.33;;;18.90;79.50;;;;;;5080609;28;27376;-70
2021/05/24 10:37:26;;;;;;;3.60;1.35;;;19.00;79.80;;;;;;5087384;28;27306;-65
2021/05/24 10:40:15;;;;;;;3.47;1.27;;;19.00;79.20;;;;;;5087261;28;27404;-66
2021/05/24 10:43:49;;;;;;;2.00;1.10;;;19.00;80.80;;;;;;5086533;28;27387;-65
2021/05/24 10:47:01;;;;;;;3.15;1.40;;;19.00;79.40;;;;;;5086647;28;27343;-65
2021/05/24 10:50:04;;;;;;;5.97;2.45;;;19.00;78.80;;;;;;5084809;28;27496;-66
2021/05/24 10:53:24;;;;;;;2.38;1.50;;;19.00;78.60;;;;;;5087048;28;27469;-65
2021/05/24 10:56:42;;;;;;;2.03;1.30;;;19.00;80.10;;;;;;5087078;28;27375;-66
2021/05/24 10:59:39;;;;;;;2.78;2.00;;;19.10;80.40;;;;;;5087049;28;26868;-68
2021/05/24 11:02:40;;;;;;;4.35;1.58;;;19.10;79.80;;;;;;5087006;28;27312;-65
2021/05/24 11:06:08;;;;;;;3.22;1.40;;;19.10;79.90;;;;;;5086609;28;27392;-65
2021/05/24 11:09:03;;;;;;;4.20;1.60;;;19.20;79.50;;;;;;5086826;28;27421;-69
2021/05/24 11:11:55;;;;;;;3.00;1.27;;;19.20;78.20;;;;;;5086597;28;27410;-65
2021/05/24 11:15:10;;;;;;;2.88;1.70;;;19.30;80.40;;;;;;5068496;28;27340;-65
2021/05/24 11:18:22;;;;;;;3.22;1.65;;;19.40;81.70;;;;;;5086383;28;27313;-66
2021/05/24 11:21:31;;;;;;;4.57;1.38;;;19.60;82.20;;;;;;5086467;28;27489;-66
2021/05/24 11:27:17;;;;;;;2.08;1.30;;;19.90;79.10;;;;;;5086240;28;27451;-65
2021/05/24 11:30:27;;;;;;;2.08;1.25;;;20.00;78.40;;;;;;5086436;28;27881;-66
2021/05/24 11:33:47;;;;;;;2.95;1.08;;;20.20;79.30;;;;;;5085515;28;27386;-66
2021/05/24 11:36:39;;;;;;;1.42;1.13;;;20.50;79.50;;;;;;5085675;28;27415;-66
2021/05/24 11:39:32;;;;;;;1.65;0.90;;;20.60;79.20;;;;;;5086162;28;27317;-66
2021/05/24 11:42:32;;;;;;;2.35;1.20;;;20.80;79.20;;;;;;5082288;28;27948;-71
2021/05/24 11:45:40;;;;;;;2.88;1.25;;;20.80;77.60;;;;;;5084504;28;27632;-66
2021/05/24 11:48:43;;;;;;;1.58;1.10;;;20.90;74.80;;;;;;5112967;27;26935;-66
2021/05/24 11:52:15;;;;;;;3.13;1.15;;;21.00;76.30;;;;;;5086242;28;27317;-66
2021/05/24 11:55:28;;;;;;;1.15;0.98;;;21.10;75.10;;;;;;5085023;28;27864;-66
2021/05/24 11:58:59;;;;;;;2.78;1.17;;;21.00;74.80;;;;;;5085213;28;27453;-66
2021/05/24 12:01:53;;;;;;;1.00;0.80;;;21.00;76.90;;;;;;5086079;28;27459;-67
2021/05/24 12:04:45;;;;;;;1.25;0.70;;;20.90;76.10;;;;;;5085701;28;27387;-66
2021/05/24 12:07:42;;;;;;;1.95;0.90;;;20.90;73.20;;;;;;5082109;28;27473;-66
2021/05/24 12:10:55;;;;;;;1.55;1.00;;;20.80;72.40;;;;;;5085595;28;27402;-67
2021/05/24 12:14:11;;;;;;;1.90;0.98;;;20.70;64.70;;;;;;5085800;28;27449;-67
2021/05/24 12:17:09;;;;;;;1.92;1.00;;;20.50;59.60;;;;;;5085117;28;27434;-67
2021/05/24 12:20:21;;;;;;;2.47;1.00;;;20.40;62.70;;;;;;5085673;28;27420;-67
2021/05/24 12:23:49;;;;;;;3.92;0.95;;;20.30;67.60;;;;;;5084785;28;27427;-67
2021/05/24 12:27:01;;;;;;;1.42;1.10;;;20.30;67.60;;;;;;5064858;28;27625;-66
2021/05/24 12:29:50;;;;;;;2.88;0.90;;;20.20;65.30;;;;;;5065373;28;27383;-66
2021/05/24 12:32:53;;;;;;;1.10;0.90;;;20.10;65.60;;;;;;5065217;28;27390;-66
2021/05/24 12:36:09;;;;;;;1.95;0.98;;;20.00;67.00;;;;;;5065219;28;27380;-66
2021/05/24 12:39:06;;;;;;;1.13;0.82;;;20.00;69.20;;;;;;5064618;28;27438;-67
2021/05/24 12:42:00;;;;;;;1.27;0.70;;;20.00;68.50;;;;;;5064894;28;27395;-67
2021/05/24 12:44:55;;;;;;;3.00;1.25;;;20.00;67.10;;;;;;5077005;28;27399;-67
2021/05/24 12:47:45;;;;;;;1.40;1.00;;;20.00;67.50;;;;;;5063988;28;27403;-66
2021/05/24 12:50:41;;;;;;;1.75;0.93;;;19.90;66.50;;;;;;5064278;28;27437;-66
2021/05/24 12:54:20;;;;;;;2.38;0.98;;;19.90;64.50;;;;;;5061479;28;27370;-67
2021/05/24 12:57:19;;;;;;;1.58;1.00;;;19.80;63.00;;;;;;5063809;28;27410;-66
2021/05/24 13:00:23;;;;;;;1.77;0.77;;;19.70;64.70;;;;;;5064450;28;27411;-66
2021/05/24 13:03:18;;;;;;;1.50;1.00;;;19.70;65.70;;;;;;5061369;28;27487;-67
2021/05/24 13:06:17;;;;;;;1.73;0.90;;;19.70;64.00;;;;;;5063924;28;27424;-67
2021/05/24 13:09:24;;;;;;;2.10;1.20;;;19.70;64.40;;;;;;5064345;28;27954;-66
2021/05/24 13:12:18;;;;;;;1.27;0.60;;;19.70;67.60;;;;;;5063486;28;27395;-67
2021/05/24 13:15:16;;;;;;;1.45;0.98;;;19.80;65.40;;;;;;5060628;28;27317;-67
2021/05/24 13:18:12;;;;;;;4.57;1.10;;;19.90;65.80;;;;;;5064229;28;27310;-66
2021/05/24 13:21:32;;;;;;;0.75;0.60;;;20.00;66.90;;;;;;5063478;28;27524;-67
2021/05/24 13:31:19;;;;;;;1.75;0.90;;;20.10;59.80;;;;;;5083672;28;27411;-66
2021/05/24 13:34:10;;;;;;;1.15;0.75;;;20.10;62.40;;;;;;5083974;28;27389;-66
2021/05/24 13:37:08;;;;;;;2.60;0.90;;;20.00;58.60;;;;;;5084480;28;27411;-67
2021/05/24 13:40:21;;;;;;;3.40;2.22;;;20.10;62.10;;;;;;5084200;28;27371;-67
2021/05/24 13:43:21;;;;;;;2.05;0.93;;;20.10;63.70;;;;;;5084124;28;27418;-68
2021/05/24 13:46:55;;;;;;;1.85;0.95;;;20.10;61.70;;;;;;5082579;28;27455;-67
2021/05/24 13:49:46;;;;;;;0.68;0.65;;;20.10;64.10;;;;;;5083276;28;27413;-67
2021/05/24 13:52:44;;;;;;;1.15;0.70;;;20.10;63.70;;;;;;5084063;28;27460;-67
2021/05/24 13:55:42;;;;;;;1.80;0.88;;;20.10;62.80;;;;;;5083973;28;27395;-67
2021/05/24 13:58:41;;;;;;;1.65;0.75;;;20.10;61.00;;;;;;5083493;28;27841;-67
2021/05/24 14:01:38;;;;;;;1.10;0.70;;;20.20;59.50;;;;;;5081903;28;27426;-67
2021/05/24 14:04:35;;;;;;;0.95;0.73;;;20.10;58.10;;;;;;5083853;28;27371;-67
2021/05/24 14:07:32;;;;;;;2.10;0.60;;;20.20;58.70;;;;;;5084034;28;27322;-66
2021/05/24 14:10:28;;;;;;;0.82;0.52;;;20.20;56.30;;;;;;5084749;28;27398;-67
2021/05/24 14:13:24;;;;;;;1.42;0.60;;;20.20;55.90;;;;;;5087394;28;27446;-67
2021/05/24 14:16:22;;;;;;;1.98;0.70;;;20.30;58.40;;;;;;5087438;28;27477;-67
2021/05/24 14:19:15;;;;;;;2.50;1.00;;;20.30;58.50;;;;;;5087674;28;27329;-67
2021/05/24 14:22:13;;;;;;;1.58;0.80;;;20.20;58.60;;;;;;5087224;28;27462;-66
2021/05/24 14:25:26;;;;;;;2.17;0.70;;;20.20;58.40;;;;;;5086760;28;27354;-67
2021/05/24 14:28:17;;;;;;;1.15;0.85;;;20.20;57.60;;;;;;5086487;28;27419;-67
2021/05/24 14:31:09;;;;;;;1.83;0.90;;;20.10;57.70;;;;;;5087406;28;27336;-69
2021/05/24 14:34:06;;;;;;;0.90;0.80;;;20.10;57.70;;;;;;5087096;28;28068;-72
2021/05/24 14:37:24;;;;;;;4.00;0.90;;;20.10;59.20;;;;;;5083733;28;27418;-67
2021/05/24 14:40:29;;;;;;;2.22;0.73;;;20.10;60.60;;;;;;5099566;28;27529;-67
2021/05/24 14:43:29;;;;;;;8.32;1.20;;;20.10;61.60;;;;;;5083613;28;27469;-67
2021/05/24 14:46:57;;;;;;;5.57;1.40;;;20.10;54.90;;;;;;5083491;28;27390;-67
2021/05/24 14:49:53;;;;;;;5.78;1.10;;;20.00;54.00;;;;;;5113848;27;27471;-66
2021/05/24 14:52:44;;;;;;;8.75;1.00;;;20.00;56.30;;;;;;5087058;28;27484;-68
2021/05/24 14:55:57;;;;;;;3.83;0.80;;;19.90;57.60;;;;;;5087014;28;27310;-67
2021/05/24 14:58:51;;;;;;;3.60;0.98;;;19.90;51.90;;;;;;5086397;28;27438;-66
2021/05/24 15:02:00;;;;;;;2.80;1.20;;;19.80;52.50;;;;;;5086611;28;27367;-65
2021/05/24 15:04:53;;;;;;;3.03;0.98;;;19.70;54.40;;;;;;5086447;28;27371;-66
2021/05/24 15:08:11;;;;;;;2.95;0.90;;;19.70;56.00;;;;;;5082985;28;27428;-67
2021/05/24 15:11:42;;;;;;;7.72;1.85;;;19.60;56.80;;;;;;5083410;28;27422;-67
2021/05/24 15:15:10;;;;;;;2.85;1.17;;;19.60;57.90;;;;;;5085665;28;27470;-66
2021/05/24 15:18:19;;;;;;;2.70;1.00;;;19.60;58.60;;;;;;5085423;28;27354;-66
2021/05/24 15:21:46;;;;;;;2.92;1.25;;;19.60;58.00;;;;;;5085452;28;27624;-67
2021/05/24 15:24:52;;;;;;;1.77;1.13;;;19.50;58.00;;;;;;5084695;28;27627;-65
2021/05/24 15:28:18;;;;;;;2.05;0.80;;;19.50;57.30;;;;;;5085788;28;27474;-66
2021/05/24 15:31:26;;;;;;;2.33;0.60;;;19.50;57.80;;;;;;5085710;28;27390;-66
2021/05/24 15:34:11;;;;;;;2.08;0.73;;;19.50;58.30;;;;;;5086072;28;27348;-68
2021/05/24 15:37:25;;;;;;;1.40;1.00;;;19.50;58.10;;;;;;5086372;28;27315;-67